Pagrindinis puslapis
METAR-TAF:

METAR-TAF

Oro uostai :

Lubbock, Teksasas, Jungtinės Amerikos Valstijos

platuma: 33-40-03N, ilguma: 101-49-17W, Aukštis: 1000 m

Dabartinis oras

Ataskaita buvo paskelbta 42 minutes, ne 10:53 UTC
Vėjas 7 kt iš Pietų
Temperatūra 13°C
Drėgmė 44%
Slėgis 1021 hPa
Matomumas: 16.1 km
Išsisklaidę debesys ne aukštis 25000 ft

METAR: KLBB 231053Z 18007KT 10SM SCT250 13/01 A3016 RMK AO2 SLP175 T01280006 $

Laikas: 06:35 (11:35 UTC)

Prognozė

Ataskaita buvo paskelbta 6 valandos ir 15 minutes, ne 05:20 UTC
Prognozė galioja nuo 23 metu 06 UTC su 24 metu 06 UTC
Vėjas 8 kt iš Pietų
Matomumas: 10 km
Giedras dangus
Nuo 23 metu 1500 UTC
Vėjas 15 kt iš Pietų/Pietvakarių
Matomumas: 10 km
Su prošvaistėmis ne aukštis 25000 ft

TAF: KLBB 230520Z 2306/2406 17008KT P6SM SKC FM231500 20015KT P6SM BKN250

Orai ataskaitas ir orų prognozės (METAR, TAF).

turimą stotys yra geltonos ir raudonos taškus žemėlapyje.

Perkelti pele per norėdami pamatyti stoties vardą.

Tada spustelėkite, norėdami matyti oro stebėjimo ir prognozės.

Norėdami pakeisti žemėlapį: spustelėkite ant žalios mygtukų su juodo kryžiaus žemyn,; žalią mygtuką su brūkšneliu, jei norite nutolinti; arba žalių rodyklių gretimoms žemėlapius.


METAR-TAF: